Time;durP1;ratioP1;P1;durP2;ratioP2;P2;SDS_P1;SDS_P2;PMS_P1;PMS_P2;Temp;Humidity;BMP_temperature;BMP_pressure;BME280_temperature;BME280_humidity;BME280_pressure;Samples;Min_cycle;Max_cycle;Signal;HPM_P1;HPM_P2
2023/10/14 00:01:15;;;;;;;16.63;3.33;;;13.40;99.90;;;;;;4843259;29;20057;-80
2023/10/14 00:03:42;;;;;;;18.35;3.80;;;13.40;99.90;;;;;;4839437;29;20077;-80
2023/10/14 00:06:17;;;;;;;20.48;3.75;;;13.40;99.90;;;;;;4819680;29;20154;-80
2023/10/14 00:11:18;;;;;;;9.75;2.40;;;13.40;99.90;;;;;;4835519;29;20056;-80
2023/10/14 00:13:52;;;;;;;7.95;2.58;;;13.40;99.90;;;;;;4840103;29;20042;-80
2023/10/14 00:18:56;;;;;;;11.43;2.65;;;13.30;99.90;;;;;;4828464;29;20425;-81
2023/10/14 00:21:25;;;;;;;11.38;2.72;;;13.20;99.90;;;;;;4828269;29;20045;-81
2023/10/14 00:23:57;;;;;;;18.85;3.92;;;13.10;99.90;;;;;;4833388;29;20060;-80
2023/10/14 00:26:26;;;;;;;12.20;3.28;;;12.90;99.90;;;;;;4836408;29;20045;-79
2023/10/14 00:29:01;;;;;;;9.77;2.35;;;12.80;99.90;;;;;;4847017;29;20045;-80
2023/10/14 00:31:27;;;;;;;14.00;3.40;;;12.70;99.90;;;;;;4834057;29;20045;-80
2023/10/14 00:33:52;;;;;;;11.35;2.42;;;12.60;99.90;;;;;;4774510;29;1359287;-80
2023/10/14 00:36:22;;;;;;;10.23;2.15;;;12.60;99.90;;;;;;4819922;29;20053;-80
2023/10/14 00:38:57;;;;;;;16.80;3.47;;;12.50;99.90;;;;;;4833606;29;20070;-80
2023/10/14 00:41:27;;;;;;;16.63;4.00;;;12.50;99.90;;;;;;4835927;29;20494;-79
2023/10/14 00:43:54;;;;;;;11.38;3.25;;;12.40;99.90;;;;;;4814425;29;20065;-80
2023/10/14 00:46:23;;;;;;;24.05;5.43;;;12.40;99.90;;;;;;4822462;29;20103;-80
2023/10/14 00:48:58;;;;;;;21.95;5.55;;;12.40;99.90;;;;;;4826838;29;20046;-80
2023/10/14 00:51:26;;;;;;;9.57;2.47;;;12.40;99.90;;;;;;4810560;29;20045;-80
2023/10/14 00:53:53;;;;;;;15.02;3.55;;;12.40;99.90;;;;;;4819522;29;20078;-80
2023/10/14 00:56:28;;;;;;;21.95;5.88;;;12.30;99.90;;;;;;4821876;29;20093;-80
2023/10/14 00:59:04;;;;;;;23.88;5.15;;;12.30;99.90;;;;;;4826678;29;20057;-80
2023/10/14 01:01:50;;;;;;;20.13;5.13;;;12.30;99.90;;;;;;4825178;29;20042;-80
2023/10/14 01:04:20;;;;;;;20.13;5.13;;;12.20;99.90;;;;;;4810260;29;20042;-80
2023/10/14 01:12:37;;;;;;;18.85;5.32;;;12.10;99.90;;;;;;4830421;29;20134;-80
2023/10/14 01:15:20;;;;;;;18.23;5.25;;;12.10;99.90;;;;;;4808033;29;20042;-80
2023/10/14 01:17:46;;;;;;;19.30;5.07;;;12.00;99.90;;;;;;4834502;29;20325;-80
2023/10/14 01:22:41;;;;;;;19.08;4.10;;;12.00;99.90;;;;;;4830259;29;20110;-80
2023/10/14 01:25:12;;;;;;;28.65;5.88;;;11.90;99.90;;;;;;4810609;29;20050;-80
2023/10/14 01:27:42;;;;;;;22.83;6.30;;;11.90;99.90;;;;;;4842264;29;20041;-80
2023/10/14 01:30:11;;;;;;;44.28;9.40;;;11.80;99.90;;;;;;4830845;29;20086;-80
2023/10/14 01:37:54;;;;;;;35.97;8.18;;;11.60;99.90;;;;;;4826609;29;20498;-80
2023/10/14 01:40:27;;;;;;;28.33;6.38;;;11.50;99.90;;;;;;4831057;29;20557;-80
2023/10/14 01:42:58;;;;;;;16.60;4.28;;;11.40;99.90;;;;;;4830703;29;20377;-80
2023/10/14 01:45:31;;;;;;;37.35;6.70;;;11.40;99.90;;;;;;4836779;29;20051;-80
2023/10/14 01:48:11;;;;;;;26.10;4.75;;;11.30;99.90;;;;;;4830490;29;20125;-80
2023/10/14 01:50:38;;;;;;;49.70;7.97;;;11.20;99.90;;;;;;4818344;29;20034;-80
2023/10/14 01:53:11;;;;;;;39.55;7.80;;;11.10;99.90;;;;;;4810307;29;20615;-80
2023/10/14 01:55:41;;;;;;;34.78;6.88;;;11.00;99.90;;;;;;4835960;29;20050;-80
2023/10/14 01:58:10;;;;;;;46.35;7.53;;;10.90;99.90;;;;;;4829958;29;20046;-80
2023/10/14 02:00:38;;;;;;;37.25;7.28;;;10.80;99.90;;;;;;4818149;29;20042;-80
2023/10/14 02:03:06;;;;;;;23.30;4.38;;;10.80;99.90;;;;;;4811470;29;20034;-80
2023/10/14 02:05:35;;;;;;;40.95;5.95;;;10.70;99.90;;;;;;4836265;29;20050;-80
2023/10/14 02:08:00;;;;;;;28.55;5.95;;;10.60;99.90;;;;;;4815065;29;20276;-79
2023/10/14 02:10:27;;;;;;;31.45;5.78;;;10.60;99.90;;;;;;4832847;29;20513;-79
2023/10/14 02:12:56;;;;;;;30.38;4.97;;;10.50;99.90;;;;;;4811897;29;20124;-79
2023/10/14 02:15:24;;;;;;;29.27;6.07;;;10.50;99.90;;;;;;4811729;29;20084;-80
2023/10/14 02:17:50;;;;;;;22.50;4.70;;;10.50;99.90;;;;;;4825461;29;20077;-79
2023/10/14 02:20:27;;;;;;;24.25;4.55;;;10.50;99.90;;;;;;4815710;29;20086;-79
2023/10/14 02:22:57;;;;;;;22.35;5.40;;;10.40;99.90;;;;;;4809075;29;20077;-80
2023/10/14 02:25:27;;;;;;;31.02;5.57;;;10.40;99.90;;;;;;4809028;29;20057;-79
2023/10/14 02:27:54;;;;;;;30.73;5.88;;;10.30;99.90;;;;;;4803953;29;20045;-80
2023/10/14 02:30:19;;;;;;;41.28;7.20;;;10.30;99.90;;;;;;4810616;29;20038;-80
2023/10/14 02:32:45;;;;;;;19.40;3.97;;;10.20;99.90;;;;;;4828520;29;20070;-80
2023/10/14 02:35:15;;;;;;;33.90;6.00;;;10.20;99.90;;;;;;4830623;29;20073;-80
2023/10/14 02:37:41;;;;;;;39.80;6.78;;;10.10;99.90;;;;;;4831495;29;20049;-80
2023/10/14 02:40:24;;;;;;;25.55;5.05;;;10.10;99.90;;;;;;4832426;29;20356;-80
2023/10/14 02:42:57;;;;;;;42.70;6.80;;;10.00;99.90;;;;;;4809828;29;20042;-80
2023/10/14 02:45:24;;;;;;;31.27;5.75;;;10.00;99.90;;;;;;4819717;29;20041;-79
2023/10/14 02:47:49;;;;;;;25.90;5.43;;;9.90;99.90;;;;;;4812791;29;20060;-79
2023/10/14 02:50:18;;;;;;;16.45;3.88;;;9.90;99.90;;;;;;4832270;29;20038;-80
2023/10/14 02:52:49;;;;;;;20.92;4.95;;;9.90;99.90;;;;;;4809628;29;20439;-80
2023/10/14 02:55:25;;;;;;;19.73;4.05;;;9.80;99.90;;;;;;4830094;29;20506;-80
2023/10/14 02:57:51;;;;;;;38.53;7.03;;;9.70;99.90;;;;;;4812499;29;20056;-80
2023/10/14 03:00:23;;;;;;;22.30;5.40;;;9.70;99.90;;;;;;4828249;29;20042;-80
2023/10/14 03:02:54;;;;;;;24.80;4.63;;;9.70;99.90;;;;;;4834545;29;20045;-80
2023/10/14 03:05:35;;;;;;;20.95;4.50;;;9.70;99.90;;;;;;4828863;29;20461;-80
2023/10/14 03:08:09;;;;;;;28.70;5.53;;;9.60;99.90;;;;;;4818521;29;20402;-80
2023/10/14 03:10:39;;;;;;;20.15;3.33;;;9.60;99.90;;;;;;4827035;29;20046;-80
2023/10/14 03:13:14;;;;;;;27.75;5.03;;;9.60;99.90;;;;;;4820571;29;20038;-80
2023/10/14 03:15:44;;;;;;;29.90;5.60;;;9.50;99.90;;;;;;4830711;29;20044;-80
2023/10/14 03:18:17;;;;;;;33.50;5.10;;;9.50;99.90;;;;;;4821751;29;20110;-80
2023/10/14 03:20:58;;;;;;;23.23;4.10;;;9.50;99.90;;;;;;4820418;29;20093;-80
2023/10/14 03:23:24;;;;;;;21.83;3.60;;;9.40;99.90;;;;;;4828554;29;20042;-80
2023/10/14 03:25:53;;;;;;;16.98;3.63;;;9.50;99.90;;;;;;4816752;29;20520;-80
2023/10/14 03:28:20;;;;;;;29.33;5.75;;;9.40;99.90;;;;;;4821660;29;20041;-80
2023/10/14 03:30:58;;;;;;;25.10;4.90;;;9.40;99.90;;;;;;4835801;29;20508;-80
2023/10/14 03:33:27;;;;;;;21.77;4.35;;;9.40;99.90;;;;;;4827875;29;20050;-80
2023/10/14 03:36:06;;;;;;;28.85;4.50;;;9.40;99.90;;;;;;4836758;29;20468;-81
2023/10/14 03:41:03;;;;;;;24.73;4.40;;;9.30;99.90;;;;;;4835891;29;20134;-80
2023/10/14 03:46:29;;;;;;;25.33;4.78;;;9.30;99.90;;;;;;4826944;29;20114;-80
2023/10/14 03:48:55;;;;;;;31.75;5.15;;;9.30;99.90;;;;;;4816073;29;20046;-80
2023/10/14 03:51:24;;;;;;;25.30;4.30;;;9.30;99.90;;;;;;4835863;29;20423;-80
2023/10/14 03:54:09;;;;;;;29.85;4.90;;;9.30;99.90;;;;;;4813344;29;20041;-80
2023/10/14 03:56:36;;;;;;;34.97;5.47;;;9.30;99.90;;;;;;4812137;29;20405;-80
2023/10/14 03:59:03;;;;;;;31.45;5.28;;;9.20;99.90;;;;;;4827140;29;20048;-80
2023/10/14 04:04:17;;;;;;;30.15;5.78;;;9.20;99.90;;;;;;4828779;29;20588;-80
2023/10/14 04:09:36;;;;;;;26.02;4.75;;;9.20;99.90;;;;;;4821101;29;20053;-80
2023/10/14 04:12:06;;;;;;;27.88;5.43;;;9.10;99.90;;;;;;4838556;29;20053;-80
2023/10/14 04:14:35;;;;;;;31.95;6.07;;;9.10;99.90;;;;;;4843987;29;20057;-80
2023/10/14 04:17:10;;;;;;;27.77;4.97;;;9.10;99.90;;;;;;4837537;29;20052;-80
2023/10/14 04:19:44;;;;;;;33.45;5.97;;;9.10;99.90;;;;;;4813040;29;20041;-80
2023/10/14 04:27:37;;;;;;;34.78;6.18;;;9.00;99.90;;;;;;4831866;29;20065;-80
2023/10/14 04:30:16;;;;;;;34.65;5.80;;;9.10;99.90;;;;;;4828677;29;20090;-80
2023/10/14 04:35:23;;;;;;;30.73;5.18;;;9.00;99.90;;;;;;4827477;29;20109;-79
2023/10/14 04:37:52;;;;;;;26.75;4.75;;;9.00;99.90;;;;;;4811346;29;20128;-80
2023/10/14 04:45:51;;;;;;;29.25;5.90;;;9.00;99.90;;;;;;4827545;29;20046;-80
2023/10/14 04:48:17;;;;;;;30.90;4.97;;;8.90;99.90;;;;;;4811517;29;20125;-79
2023/10/14 04:50:44;;;;;;;33.53;5.72;;;8.90;99.90;;;;;;4826736;29;20088;-79
2023/10/14 04:53:13;;;;;;;30.08;5.43;;;8.90;99.90;;;;;;4818089;29;20089;-80
2023/10/14 04:55:43;;;;;;;36.17;5.43;;;8.80;99.90;;;;;;4838864;29;20081;-79
2023/10/14 04:58:12;;;;;;;28.15;6.07;;;8.80;99.90;;;;;;4832751;29;20100;-80
2023/10/14 05:00:43;;;;;;;37.97;6.32;;;8.80;99.90;;;;;;4825760;29;20517;-79
2023/10/14 05:03:19;;;;;;;26.42;5.43;;;8.70;99.90;;;;;;4820660;29;20042;-80
2023/10/14 05:05:46;;;;;;;27.38;4.82;;;8.70;99.90;;;;;;4832583;29;20178;-80
2023/10/14 05:08:21;;;;;;;26.35;5.50;;;8.60;99.90;;;;;;4818810;29;20050;-80
2023/10/14 05:10:52;;;;;;;31.20;6.10;;;8.60;99.90;;;;;;4810263;29;20117;-79
2023/10/14 05:13:25;;;;;;;28.90;5.65;;;8.50;99.90;;;;;;4810587;29;20038;-79
2023/10/14 05:15:53;;;;;;;35.97;6.68;;;8.50;99.90;;;;;;4806429;29;20080;-79
2023/10/14 05:18:28;;;;;;;31.15;6.07;;;8.40;99.90;;;;;;4816294;29;20174;-79
2023/10/14 05:21:02;;;;;;;38.20;6.32;;;8.40;99.90;;;;;;4810336;29;20530;-80
2023/10/14 05:23:32;;;;;;;26.70;5.53;;;8.40;99.90;;;;;;4824770;29;20509;-79
2023/10/14 05:25:59;;;;;;;27.33;5.40;;;8.40;99.90;;;;;;4825573;29;20056;-80
2023/10/14 05:28:29;;;;;;;21.75;4.28;;;8.40;99.90;;;;;;4809654;29;20089;-79
2023/10/14 05:31:08;;;;;;;30.73;4.97;;;8.30;99.90;;;;;;4810364;29;20037;-79
2023/10/14 05:33:40;;;;;;;33.42;5.32;;;8.30;99.90;;;;;;4846119;23;20417;-85
2023/10/14 05:36:10;;;;;;;25.90;4.90;;;8.30;99.90;;;;;;4812060;29;20064;-85
2023/10/14 05:38:44;;;;;;;34.83;6.28;;;8.30;99.90;;;;;;4833047;29;20428;-85
2023/10/14 05:41:15;;;;;;;38.78;6.18;;;8.30;99.90;;;;;;4810277;29;20101;-85
2023/10/14 05:43:40;;;;;;;38.63;6.15;;;8.30;99.90;;;;;;4804099;29;20407;-85
2023/10/14 05:46:12;;;;;;;31.45;5.13;;;8.40;99.90;;;;;;4793700;29;20071;-85
2023/10/14 05:48:40;;;;;;;37.88;5.65;;;8.30;99.90;;;;;;4798823;29;20134;-85
2023/10/14 05:51:06;;;;;;;34.83;5.30;;;8.40;99.90;;;;;;4792198;29;20042;-85
2023/10/14 05:53:31;;;;;;;41.17;6.65;;;8.40;99.90;;;;;;4792041;29;20207;-85
2023/10/14 05:56:14;;;;;;;26.95;4.72;;;8.40;99.90;;;;;;4793601;29;20042;-85
2023/10/14 05:58:45;;;;;;;24.33;4.63;;;8.40;99.90;;;;;;4791456;29;20042;-85
2023/10/14 06:01:16;;;;;;;35.35;5.55;;;8.40;99.90;;;;;;4804591;29;20042;-84
2023/10/14 06:03:42;;;;;;;30.67;5.65;;;8.40;99.90;;;;;;4809554;29;20042;-85
2023/10/14 06:06:09;;;;;;;31.80;5.20;;;8.40;99.90;;;;;;4815104;29;20042;-84
2023/10/14 06:08:38;;;;;;;39.28;5.78;;;8.40;99.90;;;;;;4790030;29;20043;-86
2023/10/14 06:11:05;;;;;;;30.77;5.53;;;8.40;99.90;;;;;;4788255;29;20049;-84
2023/10/14 06:13:32;;;;;;;31.30;5.35;;;8.40;99.90;;;;;;4818819;29;20061;-85
2023/10/14 06:16:00;;;;;;;26.58;4.97;;;8.40;99.90;;;;;;4794839;29;20417;-84
2023/10/14 06:18:26;;;;;;;31.42;5.32;;;8.40;99.90;;;;;;4807852;29;20045;-84
2023/10/14 06:20:53;;;;;;;30.70;5.50;;;8.30;99.90;;;;;;4793661;29;20038;-84
2023/10/14 06:23:19;;;;;;;32.25;5.63;;;8.30;99.90;;;;;;4811291;29;20472;-83
2023/10/14 06:25:45;;;;;;;32.10;6.28;;;8.30;99.90;;;;;;4824777;29;20128;-84
2023/10/14 06:28:11;;;;;;;39.90;7.22;;;8.30;99.90;;;;;;4807658;29;20049;-85
2023/10/14 06:30:37;;;;;;;31.50;5.65;;;8.30;99.90;;;;;;4805214;29;20085;-84
2023/10/14 06:33:05;;;;;;;28.02;5.97;;;8.30;99.90;;;;;;4795919;29;20039;-84
2023/10/14 06:35:32;;;;;;;34.10;6.20;;;8.40;99.90;;;;;;4802332;29;20038;-84
2023/10/14 06:38:04;;;;;;;28.75;5.82;;;8.30;99.90;;;;;;4811415;29;20056;-84
2023/10/14 06:40:35;;;;;;;28.40;6.20;;;8.40;99.90;;;;;;4802263;29;20089;-84
2023/10/14 06:43:07;;;;;;;49.15;8.18;;;8.40;99.90;;;;;;4801221;29;20491;-85
2023/10/14 06:45:34;;;;;;;38.33;6.47;;;8.40;99.90;;;;;;4803877;29;20053;-84
2023/10/14 06:48:03;;;;;;;34.28;5.93;;;8.50;99.90;;;;;;4822409;29;20046;-84
2023/10/14 06:50:30;;;;;;;36.17;7.43;;;8.50;99.90;;;;;;4812970;29;20042;-84
2023/10/14 06:52:59;;;;;;;37.65;6.47;;;8.50;99.90;;;;;;4819357;29;20458;-86
2023/10/14 06:55:37;;;;;;;29.90;5.82;;;8.50;99.90;;;;;;4825166;29;20078;-84
2023/10/14 06:58:05;;;;;;;31.23;6.47;;;8.60;99.90;;;;;;4827919;29;20424;-85
2023/10/14 07:00:32;;;;;;;38.55;6.72;;;8.60;99.90;;;;;;4827870;29;20042;-84
2023/10/14 07:03:01;;;;;;;29.65;5.60;;;8.70;99.90;;;;;;4828177;29;20050;-84
2023/10/14 07:05:29;;;;;;;29.30;5.50;;;8.70;99.90;;;;;;4807044;29;20077;-84
2023/10/14 07:07:57;;;;;;;28.63;5.72;;;8.70;99.90;;;;;;4819698;29;20465;-84
2023/10/14 07:10:32;;;;;;;38.75;6.65;;;8.80;99.90;;;;;;4820073;29;20485;-84
2023/10/14 07:13:00;;;;;;;39.20;6.78;;;8.80;99.90;;;;;;4805002;29;20502;-85
2023/10/14 07:15:31;;;;;;;41.00;7.40;;;8.90;99.90;;;;;;4816208;29;20050;-83
2023/10/14 07:17:57;;;;;;;40.97;6.43;;;8.90;99.90;;;;;;4812552;29;20057;-85
2023/10/14 07:20:22;;;;;;;38.38;7.18;;;9.00;99.90;;;;;;4794649;29;20145;-84
2023/10/14 07:22:49;;;;;;;45.90;7.80;;;9.10;99.90;;;;;;4808414;29;20267;-83
2023/10/14 07:25:15;;;;;;;34.53;6.93;;;9.20;99.90;;;;;;4794245;29;20046;-83
2023/10/14 07:27:41;;;;;;;41.42;6.97;;;9.20;99.90;;;;;;4822635;29;20073;-83
2023/10/14 07:30:13;;;;;;;44.22;7.88;;;9.30;99.90;;;;;;4792409;29;20076;-83
2023/10/14 07:32:42;;;;;;;32.20;7.95;;;9.40;99.90;;;;;;4798877;29;20039;-83
2023/10/14 07:35:11;;;;;;;52.40;8.20;;;9.50;99.90;;;;;;4805627;29;20045;-82
2023/10/14 07:37:48;;;;;;;43.22;8.25;;;9.70;99.90;;;;;;4810316;29;20038;-83
2023/10/14 07:40:24;;;;;;;43.70;7.75;;;9.70;99.90;;;;;;4823390;29;20081;-83
2023/10/14 07:43:08;;;;;;;45.45;7.95;;;9.80;99.90;;;;;;4801934;29;20046;-83
2023/10/14 07:45:36;;;;;;;48.50;8.30;;;9.80;99.90;;;;;;4813265;29;20478;-83
2023/10/14 07:48:09;;;;;;;52.70;8.43;;;9.80;99.90;;;;;;4816456;29;20049;-83
2023/10/14 07:50:40;;;;;;;34.70;7.00;;;9.80;99.90;;;;;;4815918;29;20035;-82
2023/10/14 07:53:13;;;;;;;38.70;7.18;;;9.80;99.90;;;;;;4803173;29;20042;-83
2023/10/14 07:55:43;;;;;;;50.22;8.20;;;9.90;99.90;;;;;;4819170;29;20046;-83
2023/10/14 07:58:13;;;;;;;46.38;7.70;;;10.00;99.90;;;;;;4820887;29;20050;-82
2023/10/14 08:00:52;;;;;;;43.50;7.63;;;10.20;99.90;;;;;;4819200;29;20041;-83
2023/10/14 08:03:25;;;;;;;46.60;7.93;;;10.40;99.90;;;;;;4820772;29;20130;-83
2023/10/14 08:05:59;;;;;;;45.80;7.70;;;10.60;99.90;;;;;;4798538;29;20454;-83
2023/10/14 08:08:30;;;;;;;45.33;8.80;;;10.70;99.90;;;;;;4826603;29;20573;-83
2023/10/14 08:10:57;;;;;;;45.67;8.45;;;10.80;99.90;;;;;;4826706;29;20077;-83
2023/10/14 08:13:23;;;;;;;40.08;8.70;;;10.90;99.90;;;;;;4815277;29;20466;-82
2023/10/14 08:15:50;;;;;;;40.83;8.20;;;11.00;99.90;;;;;;4818755;29;20085;-83
2023/10/14 08:18:17;;;;;;;52.03;8.95;;;11.10;99.90;;;;;;4811434;29;20077;-83
2023/10/14 08:20:43;;;;;;;54.00;8.50;;;11.30;99.90;;;;;;4826882;29;20442;-83
2023/10/14 08:23:10;;;;;;;52.97;8.85;;;11.50;99.90;;;;;;4826548;29;20458;-82
2023/10/14 08:25:38;;;;;;;48.28;8.00;;;11.50;99.90;;;;;;4821261;29;20034;-83
2023/10/14 08:28:05;;;;;;;55.40;9.35;;;11.60;99.90;;;;;;4818637;29;20473;-82
2023/10/14 08:30:45;;;;;;;41.92;6.78;;;11.70;99.90;;;;;;4826504;29;20046;-83
2023/10/14 08:33:11;;;;;;;28.45;4.40;;;11.70;99.90;;;;;;4826452;29;20457;-82
2023/10/14 08:35:41;;;;;;;26.55;4.20;;;11.70;99.90;;;;;;4810758;29;20548;-82
2023/10/14 08:38:11;;;;;;;20.30;4.05;;;11.50;99.90;;;;;;4811174;29;20097;-83
2023/10/14 08:40:37;;;;;;;25.30;4.70;;;11.50;99.90;;;;;;4817254;29;20420;-84
2023/10/14 08:43:06;;;;;;;11.40;2.25;;;11.40;99.90;;;;;;4805795;29;20046;-82
2023/10/14 08:45:38;;;;;;;12.80;2.25;;;11.20;99.90;;;;;;4825849;29;20038;-82
2023/10/14 08:48:05;;;;;;;12.23;2.40;;;10.90;99.90;;;;;;4810820;29;20058;-82
2023/10/14 08:50:35;;;;;;;25.42;4.13;;;10.70;99.90;;;;;;4819212;29;20182;-83
2023/10/14 08:53:08;;;;;;;22.25;4.13;;;10.50;99.90;;;;;;4805543;29;20045;-82
2023/10/14 08:55:35;;;;;;;19.90;3.78;;;10.50;99.90;;;;;;4826103;29;20550;-82
2023/10/14 08:58:02;;;;;;;13.23;2.63;;;10.50;99.90;;;;;;4810597;29;20053;-81
2023/10/14 09:00:29;;;;;;;15.88;3.08;;;10.70;99.90;;;;;;4804730;29;20051;-82
2023/10/14 09:02:57;;;;;;;25.83;4.00;;;10.80;99.90;;;;;;4816038;29;20050;-81
2023/10/14 09:05:26;;;;;;;35.50;4.55;;;10.90;99.90;;;;;;4817916;29;20120;-82
2023/10/14 09:07:54;;;;;;;19.90;3.53;;;11.10;99.90;;;;;;4810454;29;20406;-82
2023/10/14 09:10:20;;;;;;;20.55;3.78;;;11.40;99.90;;;;;;4825942;29;20438;-83
2023/10/14 09:12:57;;;;;;;17.88;3.67;;;11.60;99.90;;;;;;4820056;29;20030;-82
2023/10/14 09:15:32;;;;;;;24.13;3.95;;;11.80;99.90;;;;;;4816749;29;20042;-82
2023/10/14 09:17:58;;;;;;;30.80;4.43;;;12.00;99.90;;;;;;4819821;29;20132;-82
2023/10/14 09:20:35;;;;;;;26.65;4.30;;;12.30;99.90;;;;;;4825839;29;20481;-84
2023/10/14 09:23:19;;;;;;;22.05;3.85;;;12.50;99.90;;;;;;4825907;29;20136;-82
2023/10/14 09:25:49;;;;;;;22.33;3.63;;;12.60;99.90;;;;;;4825305;29;20049;-81
2023/10/14 09:28:17;;;;;;;20.23;3.83;;;12.60;99.90;;;;;;4815340;29;20090;-82
2023/10/14 09:30:49;;;;;;;12.15;3.35;;;12.70;99.90;;;;;;4817551;29;20034;-83
2023/10/14 09:33:17;;;;;;;15.10;2.67;;;12.70;99.90;;;;;;4825554;29;20045;-83
2023/10/14 09:35:45;;;;;;;18.80;3.22;;;12.70;99.90;;;;;;4810226;29;20634;-82
2023/10/14 09:38:15;;;;;;;15.77;2.83;;;12.70;99.90;;;;;;4825333;29;20050;-83
2023/10/14 09:40:42;;;;;;;18.27;3.45;;;12.90;99.90;;;;;;4825216;29;20501;-83
2023/10/14 09:43:09;;;;;;;14.32;3.50;;;13.10;99.90;;;;;;4817668;29;20041;-82
2023/10/14 09:45:37;;;;;;;18.20;3.17;;;13.60;99.90;;;;;;4817454;29;20126;-82
2023/10/14 09:48:04;;;;;;;14.75;3.10;;;14.00;99.90;;;;;;4825113;29;20560;-82
2023/10/14 09:50:32;;;;;;;14.63;3.05;;;14.30;99.90;;;;;;4825116;29;20046;-82
2023/10/14 09:53:01;;;;;;;14.93;3.00;;;14.20;99.90;;;;;;4818443;29;20046;-81
2023/10/14 09:55:26;;;;;;;12.32;2.80;;;14.00;99.90;;;;;;4817470;29;20034;-81
2023/10/14 09:57:53;;;;;;;14.25;2.95;;;14.00;99.90;;;;;;4821078;29;20075;-81
2023/10/14 10:00:20;;;;;;;12.98;2.63;;;13.90;99.90;;;;;;4802344;29;20052;-83
2023/10/14 10:02:49;;;;;;;15.00;2.83;;;13.70;99.90;;;;;;4825335;29;20052;-82
2023/10/14 10:05:23;;;;;;;16.45;3.22;;;13.40;99.90;;;;;;4824956;29;20049;-81
2023/10/14 10:08:18;;;;;;;12.80;2.53;;;13.10;99.90;;;;;;4806642;29;20057;-82
2023/10/14 10:10:47;;;;;;;13.63;3.05;;;12.80;99.90;;;;;;4810109;29;20405;-81
2023/10/14 10:13:14;;;;;;;14.25;3.35;;;12.50;99.90;;;;;;4824995;29;20042;-81
2023/10/14 10:15:40;;;;;;;15.05;3.00;;;12.30;99.90;;;;;;4829955;29;20049;-80
2023/10/14 10:18:12;;;;;;;13.02;2.95;;;12.40;99.90;;;;;;4831170;29;20417;-81
2023/10/14 10:20:44;;;;;;;15.88;3.10;;;12.70;99.90;;;;;;4818617;29;20042;-82
2023/10/14 10:23:10;;;;;;;17.70;2.95;;;13.20;99.90;;;;;;4820159;29;20043;-83
2023/10/14 10:25:35;;;;;;;11.13;2.53;;;13.70;99.90;;;;;;4814663;29;20052;-82
2023/10/14 10:28:27;;;;;;;14.15;2.38;;;14.20;99.90;;;;;;4830683;29;20045;-82
2023/10/14 10:31:03;;;;;;;14.23;3.13;;;14.70;99.90;;;;;;4814786;29;20446;-83
2023/10/14 10:33:58;;;;;;;14.35;3.03;;;15.20;99.90;;;;;;4814090;29;20504;-82
2023/10/14 10:36:32;;;;;;;10.90;2.50;;;15.70;99.90;;;;;;4830334;29;20049;-85
2023/10/14 10:39:15;;;;;;;11.90;2.70;;;16.20;99.90;;;;;;4815535;29;20049;-82
2023/10/14 10:41:41;;;;;;;;;;;16.50;99.90;;;;;;4830908;29;20081;-82
2023/10/14 10:44:09;;;;;;;12.38;2.45;;;16.80;99.90;;;;;;4822476;29;19963;-82
2023/10/14 10:46:45;;;;;;;12.43;2.72;;;17.00;99.90;;;;;;4823783;29;20523;-83
2023/10/14 10:49:13;;;;;;;11.77;2.25;;;17.30;99.90;;;;;;4826449;29;20038;-82
2023/10/14 10:51:50;;;;;;;12.43;2.97;;;17.50;99.90;;;;;;4830364;29;20096;-83
2023/10/14 10:54:17;;;;;;;9.23;2.30;;;17.30;99.90;;;;;;4822459;29;20163;-82
2023/10/14 10:56:43;;;;;;;9.27;2.10;;;17.50;99.90;;;;;;4819026;29;20034;-82
2023/10/14 10:59:09;;;;;;;7.97;1.95;;;17.80;99.90;;;;;;4820939;29;20054;-83
2023/10/14 11:01:35;;;;;;;8.70;2.00;;;18.10;99.90;;;;;;4823378;29;20050;-83
2023/10/14 11:04:08;;;;;;;8.52;2.10;;;18.30;99.90;;;;;;4811492;29;20041;-83
2023/10/14 11:06:37;;;;;;;6.80;1.60;;;18.70;99.90;;;;;;4806025;29;20414;-85
2023/10/14 11:09:03;;;;;;;8.80;1.48;;;18.70;99.90;;;;;;4803849;29;20038;-84
2023/10/14 11:11:30;;;;;;;6.90;1.85;;;18.30;99.90;;;;;;4802307;29;20046;-80
2023/10/14 11:13:56;;;;;;;7.72;2.00;;;18.00;99.90;;;;;;4810537;29;20034;-83
2023/10/14 11:16:22;;;;;;;11.55;2.10;;;17.80;99.90;;;;;;4815327;29;20409;-82
2023/10/14 11:18:48;;;;;;;7.93;1.75;;;18.00;99.90;;;;;;4812883;29;20038;-81
2023/10/14 11:21:16;;;;;;;11.73;1.98;;;17.90;99.90;;;;;;4825214;29;20620;-83
2023/10/14 11:23:44;;;;;;;9.88;2.05;;;17.20;99.90;;;;;;4791262;29;20044;-81
2023/10/14 11:26:12;;;;;;;12.65;2.20;;;16.40;99.90;;;;;;4803158;29;20042;-81
2023/10/14 11:28:39;;;;;;;11.35;2.10;;;15.50;99.90;;;;;;4809305;29;20048;-81
2023/10/14 11:31:09;;;;;;;11.80;2.33;;;14.80;99.90;;;;;;4814110;29;20034;-81
2023/10/14 11:33:37;;;;;;;11.27;2.67;;;14.30;99.90;;;;;;4808643;29;20486;-84
2023/10/14 11:36:04;;;;;;;11.07;2.20;;;14.20;99.90;;;;;;4814444;29;20042;-82
2023/10/14 11:38:31;;;;;;;9.90;2.10;;;14.30;99.90;;;;;;4816442;29;20052;-83
2023/10/14 11:41:02;;;;;;;10.05;2.28;;;13.90;99.90;;;;;;4808001;29;20039;-83
2023/10/14 11:43:30;;;;;;;10.57;2.28;;;13.50;99.90;;;;;;4800193;29;20046;-83
2023/10/14 11:45:56;;;;;;;15.93;2.40;;;13.10;99.90;;;;;;4794696;29;20038;-84
2023/10/14 11:48:25;;;;;;;12.68;2.90;;;12.80;99.90;;;;;;4807234;29;20050;-83
2023/10/14 11:50:59;;;;;;;9.52;2.70;;;12.80;99.90;;;;;;4806140;29;20137;-84
2023/10/14 11:53:29;;;;;;;11.80;2.63;;;13.20;99.90;;;;;;4806513;29;20400;-83
2023/10/14 11:55:59;;;;;;;12.88;2.67;;;13.80;99.90;;;;;;4817834;29;20450;-83
2023/10/14 11:58:26;;;;;;;12.20;2.45;;;14.30;99.90;;;;;;4813096;29;20551;-82
2023/10/14 12:00:52;;;;;;;8.43;2.40;;;14.40;99.90;;;;;;4807933;29;20045;-83
2023/10/14 12:03:17;;;;;;;11.43;2.22;;;14.20;99.90;;;;;;4812748;29;20038;-82
2023/10/14 12:05:43;;;;;;;11.30;2.30;;;13.80;99.90;;;;;;4807396;29;20031;-83
2023/10/14 12:08:09;;;;;;;9.35;2.30;;;13.50;99.90;;;;;;4797683;29;20526;-83
2023/10/14 12:10:35;;;;;;;13.35;3.22;;;13.40;99.90;;;;;;4806614;29;20050;-82
2023/10/14 12:13:00;;;;;;;13.00;2.40;;;13.20;99.90;;;;;;4806997;29;20054;-83
2023/10/14 12:15:28;;;;;;;11.60;2.25;;;13.00;99.90;;;;;;4806813;29;20042;-86
2023/10/14 12:17:53;;;;;;;10.50;2.25;;;12.80;99.90;;;;;;4797952;29;20083;-86
2023/10/14 12:20:19;;;;;;;14.80;2.50;;;12.60;99.90;;;;;;4826589;29;20077;-85
2023/10/14 12:22:47;;;;;;;11.38;2.53;;;12.50;99.90;;;;;;4809255;29;20070;-85
2023/10/14 12:25:13;;;;;;;10.68;2.47;;;12.60;99.90;;;;;;4811871;29;20176;-85
2023/10/14 12:27:39;;;;;;;11.75;2.83;;;12.70;99.90;;;;;;4795767;29;20077;-85
2023/10/14 12:30:06;;;;;;;8.52;2.20;;;13.30;99.90;;;;;;4818457;29;20221;-85
2023/10/14 12:32:32;;;;;;;9.63;2.38;;;13.90;99.90;;;;;;4803695;29;20034;-85
2023/10/14 12:35:04;;;;;;;9.00;2.42;;;14.20;99.90;;;;;;4801936;29;20045;-86
2023/10/14 12:37:30;;;;;;;10.32;1.98;;;14.30;99.90;;;;;;4805894;29;20057;-86
2023/10/14 12:40:04;;;;;;;9.32;2.47;;;14.30;99.90;;;;;;4806657;29;20524;-85
2023/10/14 12:42:48;;;;;;;8.38;1.63;;;14.50;99.90;;;;;;4803138;29;20046;-86
2023/10/14 12:45:22;;;;;;;6.45;1.88;;;14.50;99.90;;;;;;4800239;29;20053;-86
2023/10/14 12:47:48;;;;;;;11.75;2.47;;;14.60;99.90;;;;;;4795479;29;20476;-84
2023/10/14 12:50:19;;;;;;;10.00;2.65;;;14.60;99.90;;;;;;4805275;29;20038;-86
2023/10/14 12:53:04;;;;;;;11.40;2.65;;;14.70;99.90;;;;;;4788607;29;20039;-84
2023/10/14 12:55:33;;;;;;;8.57;2.22;;;14.60;99.90;;;;;;4796302;29;20050;-84
2023/10/14 12:57:58;;;;;;;7.75;1.77;;;14.70;99.90;;;;;;4789799;29;20057;-84
2023/10/14 13:00:29;;;;;;;12.50;3.03;;;15.00;99.90;;;;;;4796307;29;20038;-84
2023/10/14 13:02:56;;;;;;;12.98;3.03;;;15.40;99.90;;;;;;4807026;29;20094;-84
2023/10/14 13:05:23;;;;;;;10.15;2.88;;;15.60;99.90;;;;;;4796374;29;20042;-83
2023/10/14 13:07:52;;;;;;;12.95;3.20;;;15.20;99.90;;;;;;4801461;29;20050;-84
2023/10/14 13:10:25;;;;;;;13.43;2.78;;;14.50;99.90;;;;;;4799904;29;20042;-85
2023/10/14 13:12:58;;;;;;;13.20;2.78;;;13.80;99.90;;;;;;4805875;29;20035;-84
2023/10/14 13:15:29;;;;;;;12.50;2.90;;;13.40;99.90;;;;;;4805641;29;20042;-83
2023/10/14 13:17:59;;;;;;;10.45;2.67;;;13.00;99.90;;;;;;4809809;29;20054;-81
2023/10/14 13:20:28;;;;;;;12.70;3.15;;;13.30;99.90;;;;;;4787475;29;20065;-81
2023/10/14 13:22:55;;;;;;;12.43;2.80;;;13.60;99.90;;;;;;4808279;29;20038;-82
2023/10/14 13:25:23;;;;;;;11.15;3.05;;;14.20;99.90;;;;;;4814480;29;20046;-82
2023/10/14 13:27:51;;;;;;;14.60;2.90;;;14.40;99.90;;;;;;4814372;29;20054;-83
2023/10/14 13:30:22;;;;;;;9.63;2.50;;;14.60;99.90;;;;;;4822130;29;20451;-82
2023/10/14 13:32:52;;;;;;;12.65;3.60;;;14.80;99.90;;;;;;4805459;29;20034;-81
2023/10/14 13:35:17;;;;;;;13.10;3.22;;;14.80;99.90;;;;;;4829464;29;20137;-81
2023/10/14 13:37:43;;;;;;;8.57;2.50;;;14.70;99.90;;;;;;4809775;29;20537;-82